createdAt,value
2018-05-31T00:01:03.172Z,6.23
2018-05-31T00:03:31.550Z,5.50
2018-05-31T00:05:59.906Z,5.40
2018-05-31T00:08:28.278Z,6.03
2018-05-31T00:10:56.615Z,6.10
2018-05-31T00:13:24.989Z,7.33
2018-05-31T00:15:53.358Z,6.07
2018-05-31T00:18:22.351Z,6.37
2018-05-31T00:20:50.693Z,6.37
2018-05-31T00:23:19.312Z,6.43
2018-05-31T00:25:49.413Z,6.00
2018-05-31T00:28:17.792Z,6.60
2018-05-31T00:30:46.590Z,6.47
2018-05-31T00:33:14.965Z,5.90
2018-05-31T00:35:43.334Z,6.13
2018-05-31T00:38:12.435Z,5.87
2018-05-31T00:40:40.879Z,6.50
2018-05-31T00:43:09.287Z,5.50
2018-05-31T00:45:37.649Z,6.07
2018-05-31T00:48:06.021Z,5.60
2018-05-31T00:50:34.377Z,5.73
2018-05-31T00:53:02.755Z,6.07
2018-05-31T00:55:42.774Z,6.13
2018-05-31T00:58:11.525Z,6.20
2018-05-31T01:00:39.893Z,5.90
2018-05-31T01:03:08.256Z,5.60
2018-05-31T01:05:37.023Z,5.67
2018-05-31T01:08:05.392Z,5.37
2018-05-31T01:10:33.737Z,5.90
2018-05-31T01:13:02.582Z,5.53
2018-05-31T01:15:30.936Z,5.60
2018-05-31T01:18:00.571Z,6.10
2018-05-31T01:20:29.125Z,6.03
2018-05-31T01:22:57.505Z,6.27
2018-05-31T01:25:26.861Z,6.30
2018-05-31T01:27:55.221Z,6.50
2018-05-31T01:30:23.571Z,6.37
2018-05-31T01:32:52.323Z,6.17
2018-05-31T01:35:20.659Z,6.37
2018-05-31T01:37:49.034Z,5.80
2018-05-31T01:40:17.749Z,6.17
2018-05-31T01:42:46.127Z,5.70
2018-05-31T01:45:15.333Z,6.83
2018-05-31T01:47:43.713Z,7.00
2018-05-31T01:50:12.076Z,6.90
2018-05-31T01:52:40.413Z,6.73
2018-05-31T01:55:08.770Z,6.50
2018-05-31T01:57:37.130Z,7.30
2018-05-31T02:00:05.484Z,6.70
2018-05-31T02:02:34.766Z,7.33
2018-05-31T02:05:03.147Z,7.80
2018-05-31T02:07:31.871Z,7.63
2018-05-31T02:10:00.236Z,7.73
2018-05-31T02:12:28.588Z,7.63
2018-05-31T02:14:56.962Z,7.80
2018-05-31T02:17:25.581Z,7.93
2018-05-31T02:19:53.946Z,7.37
2018-05-31T02:22:23.577Z,7.23
2018-05-31T02:24:51.977Z,7.63
2018-05-31T02:27:20.323Z,7.07
2018-05-31T02:29:49.114Z,7.47
2018-05-31T02:32:18.218Z,7.60
2018-05-31T02:34:46.590Z,6.90
2018-05-31T02:37:14.938Z,8.43
2018-05-31T02:39:43.301Z,8.07
2018-05-31T02:42:11.645Z,8.07
2018-05-31T02:44:40.062Z,7.80
2018-05-31T02:47:08.407Z,7.57
2018-05-31T02:49:37.073Z,8.10
2018-05-31T02:52:05.432Z,8.03
2018-05-31T02:54:33.802Z,8.10
2018-05-31T02:57:02.152Z,8.00
2018-05-31T02:59:30.796Z,8.03
2018-05-31T03:01:59.142Z,8.13
2018-05-31T03:04:27.519Z,7.57
2018-05-31T03:06:56.122Z,7.67
2018-05-31T03:09:24.510Z,7.30
2018-05-31T03:11:52.844Z,7.43
2018-05-31T03:14:21.205Z,6.73
2018-05-31T03:16:49.602Z,8.00
2018-05-31T03:19:18.234Z,7.70
2018-05-31T03:21:46.574Z,7.93
2018-05-31T03:24:14.967Z,8.10
2018-05-31T03:26:43.670Z,7.80
2018-05-31T03:29:12.043Z,8.67
2018-05-31T03:31:40.402Z,8.20
2018-05-31T03:34:09.121Z,8.20
2018-05-31T03:36:37.464Z,8.10
2018-05-31T03:39:05.838Z,8.07
2018-05-31T03:41:34.210Z,8.07
2018-05-31T03:44:02.578Z,7.97
2018-05-31T03:46:30.936Z,7.97
2018-05-31T03:48:59.708Z,8.57
2018-05-31T03:51:28.059Z,8.03
2018-05-31T03:53:56.437Z,7.27
2018-05-31T03:56:24.782Z,8.77
2018-05-31T03:58:53.851Z,9.10
2018-05-31T04:01:22.222Z,9.37
2018-05-31T04:03:50.610Z,9.90
2018-05-31T04:06:18.953Z,9.63
2018-05-31T04:08:47.372Z,9.30
2018-05-31T04:11:16.649Z,9.97
2018-05-31T04:13:45.881Z,10.00
2018-05-31T04:16:14.224Z,8.87
2018-05-31T04:18:42.605Z,10.30
2018-05-31T04:21:10.997Z,9.70
2018-05-31T04:23:39.382Z,9.77
2018-05-31T04:26:07.716Z,9.40
2018-05-31T04:28:36.110Z,9.97
2018-05-31T04:31:04.518Z,9.50
2018-05-31T04:33:33.866Z,10.20
2018-05-31T04:36:02.222Z,10.40
2018-05-31T04:38:30.604Z,11.03
2018-05-31T04:40:58.945Z,10.77
2018-05-31T04:43:27.309Z,10.57
2018-05-31T04:45:55.656Z,10.80
2018-05-31T04:48:24.060Z,10.97
2018-05-31T04:50:52.846Z,10.43
2018-05-31T04:53:21.721Z,10.87
2018-05-31T04:55:50.316Z,10.77
2018-05-31T04:58:19.494Z,10.77
2018-05-31T05:00:47.872Z,11.10
2018-05-31T05:03:16.221Z,10.40
2018-05-31T05:05:44.614Z,10.43
2018-05-31T05:08:12.957Z,10.73
2018-05-31T05:10:41.576Z,10.53
2018-05-31T05:13:09.916Z,10.17
2018-05-31T05:15:38.294Z,10.43
2018-05-31T05:18:06.642Z,9.90
2018-05-31T05:20:37.234Z,11.40
2018-05-31T05:23:05.608Z,10.53
2018-05-31T05:25:33.985Z,9.80
2018-05-31T05:28:02.327Z,9.60
2018-05-31T05:30:30.693Z,8.93
2018-05-31T05:32:59.028Z,9.63
2018-05-31T05:35:27.404Z,9.57
2018-05-31T05:37:55.757Z,9.97
2018-05-31T05:40:24.149Z,10.00
2018-05-31T05:42:52.495Z,9.33
2018-05-31T05:45:20.891Z,9.73
2018-05-31T05:47:49.265Z,9.33
2018-05-31T05:50:17.769Z,9.67
2018-05-31T05:52:46.126Z,9.43
2018-05-31T05:55:15.326Z,10.20
2018-05-31T05:57:43.671Z,9.33
2018-05-31T06:00:12.753Z,9.50
2018-05-31T06:02:41.095Z,9.40
2018-05-31T06:05:10.408Z,10.47
2018-05-31T06:07:38.762Z,9.17
2018-05-31T06:10:07.157Z,9.50
2018-05-31T06:12:35.480Z,9.80
2018-05-31T06:15:03.858Z,10.87
2018-05-31T06:17:32.403Z,10.10
2018-05-31T06:20:01.049Z,10.93
2018-05-31T06:22:29.409Z,11.57
2018-05-31T06:24:57.901Z,10.77
2018-05-31T06:27:26.261Z,10.70
2018-05-31T06:29:54.646Z,10.77
2018-05-31T06:32:25.255Z,10.37
2018-05-31T06:34:54.360Z,10.87
2018-05-31T06:37:22.778Z,11.17
2018-05-31T06:39:51.113Z,10.90
2018-05-31T06:42:19.585Z,11.07
2018-05-31T06:44:48.740Z,10.37
2018-05-31T06:47:17.079Z,10.23
2018-05-31T06:49:45.442Z,9.60
2018-05-31T06:52:13.789Z,11.03
2018-05-31T06:54:42.890Z,11.00
2018-05-31T06:57:11.237Z,10.60
2018-05-31T06:59:39.588Z,10.57
2018-05-31T07:02:08.390Z,9.90
2018-05-31T07:04:38.067Z,10.20
2018-05-31T07:07:06.403Z,10.43
2018-05-31T07:09:35.003Z,10.20
2018-05-31T07:12:03.337Z,11.20
2018-05-31T07:14:31.785Z,11.10
2018-05-31T07:17:00.134Z,10.17
2018-05-31T07:19:28.503Z,11.17
2018-05-31T07:21:57.811Z,11.13
2018-05-31T07:24:26.189Z,10.97
2018-05-31T07:26:54.524Z,11.13
2018-05-31T07:29:23.134Z,11.93
2018-05-31T07:31:51.471Z,11.40
2018-05-31T07:34:20.633Z,10.60
2018-05-31T07:36:48.985Z,10.50
2018-05-31T07:39:17.374Z,11.17
2018-05-31T07:41:45.704Z,10.53
2018-05-31T07:44:14.220Z,10.73
2018-05-31T07:46:43.303Z,10.17
2018-05-31T07:49:12.449Z,10.57
2018-05-31T07:51:40.777Z,10.60
2018-05-31T07:54:09.185Z,11.23
2018-05-31T07:56:37.530Z,10.20
2018-05-31T07:59:06.329Z,11.20
2018-05-31T08:01:34.685Z,10.57
2018-05-31T08:04:03.029Z,11.00
2018-05-31T08:06:31.412Z,10.87
2018-05-31T08:08:59.753Z,10.90
2018-05-31T08:11:28.127Z,10.03
2018-05-31T08:13:57.178Z,10.13
2018-05-31T08:16:25.533Z,11.00
2018-05-31T08:18:54.262Z,10.83
2018-05-31T08:21:22.637Z,12.17
2018-05-31T08:23:50.992Z,11.17
2018-05-31T08:26:20.089Z,11.77
2018-05-31T08:28:48.440Z,11.77
2018-05-31T08:31:16.820Z,11.43
2018-05-31T08:33:45.168Z,11.73
2018-05-31T08:36:13.552Z,11.73
2018-05-31T08:38:42.635Z,11.83
2018-05-31T08:41:11.903Z,11.77
2018-05-31T08:43:40.228Z,11.50
2018-05-31T08:46:08.598Z,12.20
2018-05-31T08:48:37.007Z,12.37
2018-05-31T08:51:05.383Z,12.33
2018-05-31T08:53:33.721Z,12.07
2018-05-31T08:56:02.095Z,12.47
2018-05-31T08:58:30.447Z,11.93
2018-05-31T09:00:58.853Z,12.57
2018-05-31T09:03:27.199Z,12.50
2018-05-31T09:05:55.585Z,12.00
2018-05-31T09:08:23.929Z,12.90
2018-05-31T09:10:53.212Z,12.17
2018-05-31T09:13:23.209Z,11.50
2018-05-31T09:15:51.992Z,12.37
2018-05-31T09:18:20.340Z,11.13
2018-05-31T09:20:48.752Z,11.50
2018-05-31T09:23:17.095Z,10.80
2018-05-31T09:25:45.469Z,12.60
2018-05-31T09:28:13.889Z,11.13
2018-05-31T09:30:42.260Z,11.43
2018-05-31T09:33:10.606Z,11.27
2018-05-31T09:35:39.000Z,11.13
2018-05-31T09:38:08.471Z,11.80
2018-05-31T09:40:36.833Z,11.27
2018-05-31T09:43:05.190Z,11.70
2018-05-31T09:45:33.608Z,11.17
2018-05-31T09:48:02.413Z,11.03
2018-05-31T09:50:30.792Z,10.47
2018-05-31T09:52:59.154Z,11.50
2018-05-31T09:55:27.518Z,11.73
2018-05-31T09:57:55.871Z,11.43
2018-05-31T10:00:24.844Z,9.73
2018-05-31T10:02:53.192Z,11.57
2018-05-31T10:05:21.922Z,11.17
2018-05-31T10:07:50.416Z,10.77
2018-05-31T10:10:18.777Z,12.53
2018-05-31T10:12:47.645Z,11.40
2018-05-31T10:15:16.024Z,10.80
2018-05-31T10:17:44.389Z,10.43
2018-05-31T10:20:12.768Z,11.00
2018-05-31T10:22:41.388Z,11.30
2018-05-31T10:25:09.752Z,10.33
2018-05-31T10:27:38.115Z,10.20
2018-05-31T10:30:06.546Z,10.43
2018-05-31T10:32:34.875Z,11.37
2018-05-31T10:35:03.246Z,10.43
2018-05-31T10:37:31.601Z,10.70
2018-05-31T10:40:00.306Z,10.70
2018-05-31T10:42:28.870Z,10.63
2018-05-31T10:44:57.246Z,10.17
2018-05-31T10:47:25.946Z,10.67
2018-05-31T10:49:54.327Z,11.13
2018-05-31T10:52:22.677Z,10.77
2018-05-31T10:54:51.173Z,11.53
2018-05-31T10:57:19.530Z,11.77
2018-05-31T10:59:47.890Z,11.07
2018-05-31T11:02:16.239Z,11.33
2018-05-31T11:04:44.812Z,11.30
2018-05-31T11:07:13.180Z,11.50
2018-05-31T11:09:41.719Z,11.70
2018-05-31T11:12:10.093Z,11.33
2018-05-31T11:14:38.543Z,10.93
2018-05-31T11:17:06.911Z,11.07
2018-05-31T11:19:35.261Z,10.77
2018-05-31T11:22:04.559Z,11.50
2018-05-31T11:24:32.979Z,10.40
2018-05-31T11:27:01.368Z,10.03
2018-05-31T11:29:29.692Z,9.50
2018-05-31T11:31:58.910Z,9.10
2018-05-31T11:34:28.809Z,9.27
2018-05-31T11:36:57.250Z,9.53
2018-05-31T11:39:25.630Z,7.17
2018-05-31T11:41:53.966Z,7.57
2018-05-31T11:44:22.292Z,7.37
2018-05-31T11:46:50.655Z,6.90
2018-05-31T11:49:18.999Z,6.60
2018-05-31T11:51:47.417Z,6.83
2018-05-31T11:54:15.747Z,8.30
2018-05-31T11:56:44.181Z,7.87
2018-05-31T11:59:12.520Z,7.60
2018-05-31T12:01:40.908Z,7.67
2018-05-31T12:04:09.264Z,7.57
2018-05-31T12:06:38.108Z,6.77
2018-05-31T12:09:07.180Z,7.20
2018-05-31T12:11:35.573Z,6.77
2018-05-31T12:14:03.909Z,9.10
2018-05-31T12:16:32.776Z,7.90
2018-05-31T12:19:01.107Z,8.40
2018-05-31T12:21:30.141Z,8.97
2018-05-31T12:23:58.486Z,8.43
2018-05-31T12:26:27.154Z,8.33
2018-05-31T12:28:55.726Z,9.00
2018-05-31T12:31:24.080Z,8.13
2018-05-31T12:33:53.145Z,7.67
2018-05-31T12:36:21.537Z,7.77
2018-05-31T12:38:50.699Z,7.93
2018-05-31T12:41:19.067Z,9.40
2018-05-31T12:43:47.424Z,8.33
2018-05-31T12:46:17.052Z,8.33
2018-05-31T12:48:45.377Z,7.83
2018-05-31T12:51:13.745Z,8.23
2018-05-31T12:53:42.134Z,8.40
2018-05-31T12:56:10.459Z,8.37
2018-05-31T12:58:38.781Z,8.07
2018-05-31T13:01:07.452Z,8.07
2018-05-31T13:03:36.038Z,8.30
2018-05-31T13:06:04.500Z,8.73
2018-05-31T13:08:32.757Z,8.20
2018-05-31T13:11:01.242Z,7.77
2018-05-31T13:13:30.295Z,8.00
2018-05-31T13:15:59.055Z,7.70
2018-05-31T13:18:27.375Z,7.23
2018-05-31T13:20:57.610Z,5.80
2018-05-31T13:23:25.981Z,5.20
2018-05-31T13:25:54.342Z,5.03
2018-05-31T13:28:22.713Z,5.47
2018-05-31T13:30:51.082Z,5.43
2018-05-31T13:33:20.723Z,5.37
2018-05-31T13:35:49.055Z,5.30
2018-05-31T13:38:17.792Z,5.47
2018-05-31T13:40:46.377Z,5.20
2018-05-31T13:43:14.835Z,5.60
2018-05-31T13:45:43.386Z,4.53
2018-05-31T13:48:12.513Z,4.47
2018-05-31T13:50:40.890Z,4.23
2018-05-31T13:53:09.542Z,4.53
2018-05-31T13:55:38.954Z,4.00
2018-05-31T13:58:07.289Z,3.87
2018-05-31T14:00:35.917Z,3.80
2018-05-31T14:03:04.241Z,3.30
2018-05-31T14:05:32.935Z,3.33
2018-05-31T14:08:01.753Z,4.00
2018-05-31T14:10:31.214Z,4.30
2018-05-31T14:12:59.529Z,3.90
2018-05-31T14:15:27.867Z,5.53
2018-05-31T14:17:56.237Z,5.93
2018-05-31T14:20:24.600Z,5.20
2018-05-31T14:22:52.917Z,5.53
2018-05-31T14:25:21.337Z,6.20
2018-05-31T14:27:49.694Z,6.53
2018-05-31T14:30:18.059Z,5.60
2018-05-31T14:32:46.686Z,6.37
2018-05-31T14:35:15.094Z,7.20
2018-05-31T14:37:43.675Z,8.03
2018-05-31T14:40:12.028Z,7.77
2018-05-31T14:42:40.385Z,7.37
2018-05-31T14:45:08.721Z,7.70
2018-05-31T14:47:37.925Z,8.10
2018-05-31T14:50:06.798Z,9.17
2018-05-31T14:52:35.626Z,7.77
2018-05-31T14:55:03.957Z,6.80
2018-05-31T14:57:32.305Z,7.00
2018-05-31T15:00:00.640Z,7.53
2018-05-31T15:02:29.033Z,7.27
2018-05-31T15:04:57.531Z,7.07
2018-05-31T15:07:25.891Z,6.90
2018-05-31T15:09:54.222Z,6.23
2018-05-31T15:12:22.578Z,6.90
2018-05-31T15:14:50.959Z,6.83
2018-05-31T15:17:20.660Z,7.10
2018-05-31T15:19:49.006Z,6.57
2018-05-31T15:22:17.367Z,6.33
2018-05-31T15:24:45.702Z,6.50
2018-05-31T15:27:14.075Z,6.60
2018-05-31T15:29:42.423Z,6.60
2018-05-31T15:32:10.777Z,6.13
2018-05-31T15:34:39.109Z,6.50
2018-05-31T15:37:07.463Z,6.63
2018-05-31T15:39:35.794Z,6.33
2018-05-31T15:42:04.215Z,6.47
2018-05-31T15:44:32.545Z,6.33
2018-05-31T15:47:00.942Z,6.33
2018-05-31T15:49:29.598Z,6.60
2018-05-31T15:51:57.957Z,6.20
2018-05-31T15:54:26.302Z,5.93
2018-05-31T15:56:55.019Z,5.93
2018-05-31T15:59:23.402Z,5.70
2018-05-31T16:01:51.763Z,5.33
2018-05-31T16:04:20.706Z,5.37
2018-05-31T16:06:49.483Z,5.40
2018-05-31T16:09:18.107Z,5.47
2018-05-31T16:11:46.465Z,5.60
2018-05-31T16:14:15.041Z,5.53
2018-05-31T16:16:44.246Z,5.40
2018-05-31T16:19:12.990Z,5.23
2018-05-31T16:21:41.336Z,5.67
2018-05-31T16:24:09.669Z,5.67
2018-05-31T16:26:39.022Z,5.63
2018-05-31T16:29:07.366Z,5.20
2018-05-31T16:31:35.725Z,5.20
2018-05-31T16:34:04.062Z,5.60
2018-05-31T16:36:32.418Z,5.50
2018-05-31T16:39:00.756Z,6.20
2018-05-31T16:41:29.518Z,5.63
2018-05-31T16:43:58.179Z,6.03
2018-05-31T16:46:27.055Z,5.63
2018-05-31T16:48:55.376Z,5.90
2018-05-31T16:51:23.737Z,5.60
2018-05-31T16:53:52.887Z,5.43
2018-05-31T16:56:21.275Z,5.80
2018-05-31T16:58:49.925Z,6.47
2018-05-31T17:01:18.277Z,5.40
2018-05-31T17:03:46.648Z,5.67
2018-05-31T17:06:15.827Z,5.53
2018-05-31T17:08:44.162Z,5.90
2018-05-31T17:11:13.281Z,5.57
2018-05-31T17:13:41.835Z,5.37
2018-05-31T17:16:10.189Z,5.80
2018-05-31T17:18:38.520Z,5.30
2018-05-31T17:21:06.883Z,5.87
2018-05-31T17:23:35.382Z,5.17
2018-05-31T17:26:04.113Z,5.70
2018-05-31T17:28:32.439Z,5.97
2018-05-31T17:31:00.872Z,5.67
2018-05-31T17:33:29.606Z,5.27
2018-05-31T17:35:58.031Z,5.73
2018-05-31T17:38:27.134Z,5.97
2018-05-31T17:40:56.049Z,5.17
2018-05-31T17:43:24.963Z,5.80
2018-05-31T17:45:53.753Z,5.37
2018-05-31T17:48:22.109Z,5.80
2018-05-31T17:50:50.465Z,5.27
2018-05-31T17:53:18.842Z,5.93
2018-05-31T17:55:48.304Z,5.73
2018-05-31T17:58:16.964Z,6.50
2018-05-31T18:00:45.301Z,6.33
2018-05-31T18:03:13.662Z,6.20
2018-05-31T18:05:41.988Z,5.80
2018-05-31T18:08:11.899Z,6.17
2018-05-31T18:10:40.228Z,6.13
2018-05-31T18:13:08.588Z,6.13
2018-05-31T18:15:36.984Z,6.37
2018-05-31T18:18:05.934Z,7.17
2018-05-31T18:20:34.285Z,6.40
2018-05-31T18:23:02.655Z,5.20
2018-05-31T18:25:31.007Z,6.27
2018-05-31T18:27:59.366Z,6.20
2018-05-31T18:30:27.691Z,6.50
2018-05-31T18:32:56.092Z,5.93
2018-05-31T18:35:24.405Z,6.47
2018-05-31T18:37:52.821Z,6.37
2018-05-31T18:40:21.538Z,5.80
2018-05-31T18:42:50.430Z,6.13
2018-05-31T18:45:18.774Z,6.47
2018-05-31T18:47:47.140Z,6.03
2018-05-31T18:50:15.482Z,6.63
2018-05-31T18:52:44.777Z,7.20
2018-05-31T18:55:13.091Z,6.70
2018-05-31T18:57:41.454Z,7.90
2018-05-31T19:00:10.620Z,7.33
2018-05-31T19:02:40.600Z,6.60
2018-05-31T19:05:09.426Z,6.77
2018-05-31T19:07:37.883Z,7.10
2018-05-31T19:10:06.218Z,6.27
2018-05-31T19:12:40.510Z,6.47
2018-05-31T19:15:08.855Z,6.37
2018-05-31T19:17:38.915Z,6.43
2018-05-31T19:20:07.259Z,6.40
2018-05-31T19:22:35.607Z,7.20
2018-05-31T19:25:09.922Z,6.20
2018-05-31T19:27:38.280Z,7.53
2018-05-31T19:30:12.179Z,7.23
2018-05-31T19:32:40.545Z,6.70
2018-05-31T19:35:14.959Z,7.40
2018-05-31T19:37:43.331Z,6.93
2018-05-31T19:40:12.325Z,6.50
2018-05-31T19:42:46.442Z,6.70
2018-05-31T19:45:15.474Z,6.60
2018-05-31T19:47:44.225Z,8.03
2018-05-31T19:50:12.803Z,7.13
2018-05-31T19:52:46.665Z,7.60
2018-05-31T19:55:16.750Z,6.93
2018-05-31T19:57:50.853Z,8.23
2018-05-31T20:00:25.979Z,7.13
2018-05-31T20:03:00.197Z,7.60
2018-05-31T20:05:28.554Z,8.13
2018-05-31T20:07:56.912Z,7.93
2018-05-31T20:10:26.054Z,8.20
2018-05-31T20:12:54.416Z,7.40
2018-05-31T20:15:22.753Z,7.90
2018-05-31T20:17:51.113Z,8.13
2018-05-31T20:20:19.450Z,7.80
2018-05-31T20:22:47.822Z,7.67
2018-05-31T20:25:16.690Z,7.30
2018-05-31T20:27:45.111Z,7.33
2018-05-31T20:30:13.445Z,7.30
2018-05-31T20:32:41.769Z,7.50
2018-05-31T20:35:10.941Z,7.63
2018-05-31T20:37:41.151Z,7.23
2018-05-31T20:40:09.513Z,6.87
2018-05-31T20:42:37.927Z,7.17
2018-05-31T20:45:06.275Z,6.83
2018-05-31T20:47:34.622Z,6.50
2018-05-31T20:50:02.982Z,7.17
2018-05-31T20:52:33.297Z,7.13
2018-05-31T20:55:01.641Z,6.90
2018-05-31T20:57:29.973Z,6.50
2018-05-31T21:00:00.000Z,7.33
2018-05-31T21:02:28.365Z,7.20
2018-05-31T21:04:57.141Z,6.17
2018-05-31T21:07:25.469Z,7.00
2018-05-31T21:09:53.831Z,6.73
2018-05-31T21:12:22.470Z,7.13
2018-05-31T21:14:51.372Z,7.07
2018-05-31T21:17:19.719Z,7.03
2018-05-31T21:19:48.646Z,7.57
2018-05-31T21:22:16.976Z,7.73
2018-05-31T21:24:46.051Z,7.20
2018-05-31T21:27:14.386Z,6.50
2018-05-31T21:29:43.481Z,7.27
2018-05-31T21:32:11.819Z,6.83
2018-05-31T21:34:40.619Z,7.40
2018-05-31T21:37:08.991Z,7.00
2018-05-31T21:39:37.691Z,6.50
2018-05-31T21:42:06.022Z,6.70
2018-05-31T21:44:34.378Z,6.50
2018-05-31T21:47:03.982Z,6.80
2018-05-31T21:49:32.348Z,6.50
2018-05-31T21:52:03.260Z,6.23
2018-05-31T21:54:31.918Z,6.30
2018-05-31T21:57:00.240Z,6.10
2018-05-31T21:59:29.529Z,6.60
2018-05-31T22:01:57.865Z,6.80
2018-05-31T22:04:26.209Z,6.57
2018-05-31T22:06:54.793Z,7.07
2018-05-31T22:09:23.581Z,7.10
2018-05-31T22:11:51.960Z,7.13
2018-05-31T22:14:20.650Z,7.43
2018-05-31T22:16:49.229Z,7.43
2018-05-31T22:19:17.624Z,7.60
2018-05-31T22:21:46.701Z,6.87
2018-05-31T22:24:15.066Z,7.17
2018-05-31T22:26:43.396Z,7.17
2018-05-31T22:29:12.696Z,7.03
2018-05-31T22:31:41.036Z,7.60
2018-05-31T22:34:09.399Z,7.20
2018-05-31T22:36:37.817Z,7.70
2018-05-31T22:39:06.107Z,7.70
2018-05-31T22:41:35.157Z,7.53
2018-05-31T22:44:03.960Z,7.53
2018-05-31T22:46:32.633Z,7.63
2018-05-31T22:49:01.426Z,7.77
2018-05-31T22:51:29.754Z,7.20
2018-05-31T22:53:58.113Z,7.33
2018-05-31T22:56:26.442Z,7.03
2018-05-31T22:58:54.810Z,8.00
2018-05-31T23:01:23.211Z,7.50
2018-05-31T23:03:51.584Z,7.27
2018-05-31T23:06:19.971Z,7.97
2018-05-31T23:08:48.593Z,7.67
2018-05-31T23:11:17.014Z,7.60
2018-05-31T23:13:45.372Z,7.60
2018-05-31T23:16:13.734Z,7.43
2018-05-31T23:18:42.079Z,6.93
2018-05-31T23:21:10.861Z,7.90
2018-05-31T23:23:39.222Z,7.97
2018-05-31T23:26:07.821Z,7.67
2018-05-31T23:28:36.206Z,8.63
2018-05-31T23:31:04.543Z,7.53
2018-05-31T23:33:33.042Z,8.10
2018-05-31T23:36:01.372Z,7.90
2018-05-31T23:38:30.021Z,8.70
2018-05-31T23:40:58.358Z,8.37
2018-05-31T23:43:26.714Z,7.77
2018-05-31T23:45:55.059Z,8.20
2018-05-31T23:48:23.455Z,7.97
2018-05-31T23:50:51.810Z,8.07
2018-05-31T23:53:20.162Z,8.30
2018-05-31T23:55:50.202Z,7.63
2018-05-31T23:58:18.563Z,7.70
